NCAR-RAP Real-Time Weather Data

Output produced by METARs form (21 May 2019  10:26 UTC)
found at http://weather.rap.ucar.edu/surface/
 
RJAF 210700Z 35014KT 9999 FEW020 BKN/// 18/12 Q1003
RJAF 210600Z 34018KT 9999 FEW020 BKN/// 19/13 Q1003
RJAF 210500Z VRB05KT 9999 FEW030 BKN/// 22/11 Q1002
RJAF 210400Z 14008KT 100V180 9999 FEW025 SCT/// 21/14 Q1002
RJAF 210300Z 15009KT 9999 FEW008 SCT015 BKN150 19/15 Q1003
RJAF 210200Z 22003KT 170V250 9999 VCSH FEW007 SCT020 BKN090 16/14 Q1003
RJAF 210116Z 18008KT 9999 -SHRA FEW002 SCT007 BKN015 15/14 Q1004 RMK 1ST002 3ST007 6ST015 A2966
RJAF 210100Z VRB01KT 9999 SHRA VCFG FEW002 BKN007 BKN020 15/14 Q1004
RJAF 210034Z VRB02KT 5000 -SHRA BR FEW004 SCT005 BKN007 15/14 Q1004 RMK 2ST004 3ST005 6ST007 A2966
RJAF 210000Z VRB02KT 3000 SHRA BR FEW002 SCT003 BKN005 14/13 Q1004
RJAF 202330Z 36003KT 320V040 2500 SHRA BR FEW002 SCT003 BKN004 14/13 Q1004
RJAF 202310Z 34004KT 320V020 3000 SHRA BR FEW002 BKN003 BKN004 14/13 Q1004 RMK 2ST002 5ST003 7ST004 A2965
RJAF 200700Z 14016G26KT 100V180 9999 FEW050 SCT130 BKN150 19/09 Q1010
RJAF 200600Z 14017G27KT 110V180 9999 FEW060 BKN130 BKN/// 21/08 Q1010
RJAF 200500Z 13014G26KT 090V170 9999 FEW060 BKN120 22/08 Q1011
RJAF 200400Z 14015G25KT 100V170 9999 FEW060 SCT080 BKN/// 21/08 Q1012
RJAF 200300Z 13013G24KT 080V170 9999 FEW060 22/08 Q1013
RJAF 200200Z 14012KT 110V180 9999 FEW060 21/07 Q1014
RJAF 200100Z 14012KT 110V170 9999 FEW050 20/07 Q1015
RJAF 200000Z 14012KT 090V170 9999 FEW040 19/07 Q1015
RJAF 192330Z 16012KT 9999 FEW040 18/07 Q1016
RJAF 192310Z 16014KT 120V190 9999 FEW040 17/07 Q1016 RMK 1CU040 A3002
RJAF 190700Z 14010KT 100V170 9999 FEW060 BKN/// 23/06 Q1017
RJAF 190600Z 16013KT 100V180 9999 FEW060 SCT/// 24/07 Q1017
RJAF 190500Z 15011KT 110V180 9999 FEW060 SCT/// 24/06 Q1018
RJAF 190400Z 15011KT 100V180 9999 FEW060 23/06 Q1019
RJAF 190300Z 16011KT 130V200 9999 FEW060 23/05 Q1019
RJAF 190200Z 16011KT 120V200 9999 FEW060 22/07 Q1020
RJAF 190100Z 17014KT 9999 FEW050 20/07 Q1021
RJAF 190000Z VRB05KT 9999 FEW050 19/07 Q1022
RJAF 182330Z VRB02KT 9999 FEW045 17/07 Q1022